createdAt,value
2019-01-14T00:02:15.039Z,15.20
2019-01-14T00:04:43.483Z,13.07
2019-01-14T00:07:11.928Z,12.87
2019-01-14T00:09:40.370Z,13.17
2019-01-14T00:12:08.815Z,12.40
2019-01-14T00:14:37.268Z,13.83
2019-01-14T00:17:05.700Z,16.47
2019-01-14T00:19:34.154Z,12.43
2019-01-14T00:22:02.596Z,15.53
2019-01-14T00:24:31.044Z,14.53
2019-01-14T00:26:59.518Z,15.33
2019-01-14T00:29:27.966Z,11.00
2019-01-14T00:31:56.398Z,20.67
2019-01-14T00:34:25.316Z,14.43
2019-01-14T00:36:53.751Z,10.57
2019-01-14T00:39:22.201Z,13.07
2019-01-14T00:41:50.647Z,12.67
2019-01-14T00:44:19.105Z,11.67
2019-01-14T00:46:47.545Z,11.83
2019-01-14T00:49:16.003Z,11.07
2019-01-14T00:51:44.434Z,13.60
2019-01-14T00:54:12.902Z,14.87
2019-01-14T00:56:41.399Z,14.77
2019-01-14T00:59:09.857Z,12.13
2019-01-14T01:01:38.290Z,14.07
2019-01-14T01:04:06.759Z,18.20
2019-01-14T01:06:35.211Z,11.67
2019-01-14T01:09:05.895Z,18.07
2019-01-14T01:11:34.336Z,19.47
2019-01-14T01:14:02.782Z,18.23
2019-01-14T01:16:31.228Z,18.53
2019-01-14T01:18:59.666Z,17.27
2019-01-14T01:21:28.118Z,14.07
2019-01-14T01:23:56.558Z,16.17
2019-01-14T01:26:25.024Z,12.33
2019-01-14T01:28:53.461Z,20.17
2019-01-14T01:31:21.910Z,16.07
2019-01-14T01:33:50.334Z,15.97
2019-01-14T01:36:18.797Z,15.37
2019-01-14T01:38:47.230Z,22.57
2019-01-14T01:41:15.684Z,20.10
2019-01-14T01:43:44.119Z,19.93
2019-01-14T01:46:12.557Z,17.77
2019-01-14T01:48:41.010Z,18.57
2019-01-14T01:51:09.528Z,18.13
2019-01-14T01:53:37.957Z,11.97
2019-01-14T01:56:06.406Z,16.50
2019-01-14T01:58:34.843Z,21.80
2019-01-14T02:01:03.307Z,16.93
2019-01-14T02:03:31.739Z,19.60
2019-01-14T02:06:00.200Z,19.73
2019-01-14T02:08:28.629Z,19.90
2019-01-14T02:10:57.104Z,22.20
2019-01-14T02:13:25.546Z,21.27
2019-01-14T02:15:53.997Z,16.50
2019-01-14T02:18:22.442Z,17.90
2019-01-14T02:20:50.885Z,22.90
2019-01-14T02:23:19.325Z,16.93
2019-01-14T02:25:47.791Z,14.77
2019-01-14T02:28:16.226Z,17.47
2019-01-14T02:30:44.690Z,16.30
2019-01-14T02:33:13.125Z,17.97
2019-01-14T02:35:41.587Z,13.23
2019-01-14T02:38:10.061Z,16.13
2019-01-14T02:40:38.585Z,15.17
2019-01-14T02:43:07.077Z,13.63
2019-01-14T02:45:35.544Z,15.73
2019-01-14T02:48:04.127Z,15.57
2019-01-14T02:50:32.649Z,14.93
2019-01-14T02:53:01.099Z,18.23
2019-01-14T02:55:29.555Z,14.97
2019-01-14T02:57:58.002Z,10.97
2019-01-14T03:00:26.690Z,13.93
2019-01-14T03:02:55.162Z,14.53
2019-01-14T03:05:23.674Z,15.50
2019-01-14T03:07:52.189Z,11.40
2019-01-14T03:10:20.628Z,14.33
2019-01-14T03:12:49.082Z,12.40
2019-01-14T03:15:18.698Z,15.40
2019-01-14T03:17:47.149Z,14.63
2019-01-14T03:20:18.311Z,11.90
2019-01-14T03:22:47.049Z,16.13
2019-01-14T03:25:16.845Z,17.47
2019-01-14T03:27:45.360Z,18.17
2019-01-14T03:30:16.538Z,14.87
2019-01-14T03:32:45.055Z,13.60
2019-01-14T03:35:13.642Z,15.67
2019-01-14T03:37:42.167Z,10.77
2019-01-14T03:40:13.150Z,13.60
2019-01-14T03:42:41.601Z,15.03
2019-01-14T03:45:11.578Z,17.20
2019-01-14T03:47:40.029Z,14.90
2019-01-14T03:50:16.903Z,12.70
2019-01-14T03:52:45.351Z,12.47
2019-01-14T03:55:13.961Z,17.67
2019-01-14T03:57:43.042Z,10.93
2019-01-14T04:00:14.433Z,13.20
2019-01-14T04:02:43.027Z,17.23
2019-01-14T04:05:11.534Z,13.83
2019-01-14T04:07:40.070Z,18.73
2019-01-14T04:10:13.780Z,14.03
2019-01-14T04:12:42.299Z,13.43
2019-01-14T04:15:13.472Z,17.27
2019-01-14T04:17:42.011Z,17.43
2019-01-14T04:20:13.375Z,19.73
2019-01-14T04:22:41.897Z,13.07
2019-01-14T04:25:10.475Z,18.77
2019-01-14T04:27:38.929Z,16.57
2019-01-14T04:30:16.529Z,16.23
2019-01-14T04:32:44.988Z,12.43
2019-01-14T04:35:13.514Z,18.23
2019-01-14T04:37:41.969Z,10.40
2019-01-14T04:40:12.849Z,10.20
2019-01-14T04:42:41.295Z,12.63
2019-01-14T04:45:11.682Z,16.47
2019-01-14T04:47:40.141Z,9.30
2019-01-14T04:50:11.771Z,9.90
2019-01-14T04:52:40.239Z,12.03
2019-01-14T04:55:08.858Z,14.37
2019-01-14T04:57:37.342Z,10.73
2019-01-14T05:00:08.863Z,13.07
2019-01-14T05:02:37.311Z,12.70
2019-01-14T05:05:06.881Z,14.10
2019-01-14T05:07:35.343Z,10.33
2019-01-14T05:10:07.015Z,11.93
2019-01-14T05:12:35.484Z,10.50
2019-01-14T05:15:04.654Z,8.43
2019-01-14T05:17:33.095Z,8.80
2019-01-14T05:20:01.554Z,9.33
2019-01-14T05:22:30.002Z,8.97
2019-01-14T05:24:58.533Z,10.27
2019-01-14T05:27:27.036Z,7.33
2019-01-14T05:29:55.504Z,16.37
2019-01-14T05:32:23.986Z,11.33
2019-01-14T05:34:52.466Z,14.60
2019-01-14T05:37:20.914Z,13.20
2019-01-14T05:39:49.358Z,12.73
2019-01-14T05:42:17.802Z,11.83
2019-01-14T05:44:46.271Z,11.33
2019-01-14T05:47:14.792Z,9.50
2019-01-14T05:49:43.241Z,10.70
2019-01-14T05:52:11.684Z,8.47
2019-01-14T05:54:40.204Z,9.10
2019-01-14T05:57:08.698Z,10.17
2019-01-14T05:59:37.154Z,13.00
2019-01-14T06:02:05.578Z,12.37
2019-01-14T06:04:34.034Z,11.13
2019-01-14T06:07:02.471Z,10.70
2019-01-14T06:09:30.927Z,11.07
2019-01-14T06:11:59.400Z,11.97
2019-01-14T06:14:27.887Z,15.47
2019-01-14T06:16:56.324Z,15.73
2019-01-14T06:19:25.367Z,8.43
2019-01-14T06:21:53.849Z,9.70
2019-01-14T06:24:22.290Z,6.93
2019-01-14T06:26:50.820Z,8.83
2019-01-14T06:29:19.275Z,14.60
2019-01-14T06:31:47.708Z,12.83
2019-01-14T06:34:16.172Z,9.50
2019-01-14T06:36:44.617Z,4.67
2019-01-14T06:39:13.046Z,6.60
2019-01-14T06:41:41.491Z,10.47
2019-01-14T06:44:09.939Z,6.03
2019-01-14T06:46:38.379Z,8.00
2019-01-14T06:49:06.828Z,3.93
2019-01-14T06:51:35.261Z,5.87
2019-01-14T06:54:03.723Z,7.17
2019-01-14T06:56:32.152Z,4.77
2019-01-14T06:59:00.596Z,4.43
2019-01-14T07:01:29.051Z,7.17
2019-01-14T07:03:57.504Z,6.23
2019-01-14T07:06:25.954Z,3.77
2019-01-14T07:08:54.377Z,6.47
2019-01-14T07:11:23.121Z,4.93
2019-01-14T07:13:51.554Z,6.47
2019-01-14T07:16:20.009Z,5.67
2019-01-14T07:18:48.433Z,7.10
2019-01-14T07:21:16.906Z,6.03
2019-01-14T07:23:45.327Z,7.37
2019-01-14T07:26:13.828Z,5.90
2019-01-14T07:28:42.266Z,5.07
2019-01-14T07:31:10.726Z,5.07
2019-01-14T07:33:39.166Z,5.73
2019-01-14T07:36:07.644Z,6.10
2019-01-14T07:38:36.076Z,9.30
2019-01-14T07:41:04.543Z,10.03
2019-01-14T07:43:32.987Z,8.07
2019-01-14T07:46:01.435Z,12.20
2019-01-14T07:48:29.943Z,8.17
2019-01-14T07:50:58.404Z,5.70
2019-01-14T07:53:26.843Z,7.17
2019-01-14T07:55:55.290Z,9.57
2019-01-14T07:58:23.730Z,5.97
2019-01-14T08:00:52.185Z,8.33
2019-01-14T08:03:20.631Z,6.27
2019-01-14T08:05:49.099Z,9.33
2019-01-14T08:08:17.588Z,5.87
2019-01-14T08:10:46.076Z,9.33
2019-01-14T08:13:14.505Z,5.87
2019-01-14T08:15:42.966Z,11.60
2019-01-14T08:18:11.411Z,9.60
2019-01-14T08:20:39.866Z,10.40
2019-01-14T08:23:08.289Z,9.17
2019-01-14T08:25:37.512Z,5.17
2019-01-14T08:28:06.054Z,9.77
2019-01-14T08:30:34.512Z,9.47
2019-01-14T08:33:02.959Z,9.80
2019-01-14T08:35:31.401Z,6.10
2019-01-14T08:37:59.833Z,11.10
2019-01-14T08:40:28.283Z,9.00
2019-01-14T08:42:56.719Z,11.23
2019-01-14T08:45:25.170Z,11.87
2019-01-14T08:47:53.606Z,10.27
2019-01-14T08:50:22.050Z,11.47
2019-01-14T08:52:50.480Z,7.17
2019-01-14T08:55:18.929Z,8.50
2019-01-14T08:57:54.241Z,8.23
2019-01-14T09:00:19.214Z,7.10
2019-01-14T09:02:47.663Z,9.37
2019-01-14T09:05:16.558Z,8.90
2019-01-14T09:07:45.075Z,12.83
2019-01-14T09:10:19.186Z,11.87
2019-01-14T09:12:47.641Z,7.40
2019-01-14T09:15:17.711Z,10.40
2019-01-14T09:17:46.602Z,6.97
2019-01-14T09:20:20.267Z,8.00
2019-01-14T09:22:48.864Z,10.63
2019-01-14T09:25:17.313Z,12.87
2019-01-14T09:27:45.825Z,9.10
2019-01-14T09:30:19.721Z,8.23
2019-01-14T09:32:48.252Z,11.20
2019-01-14T09:35:16.785Z,9.53
2019-01-14T09:37:45.269Z,7.33
2019-01-14T09:40:16.358Z,8.87
2019-01-14T09:42:44.806Z,7.80
2019-01-14T09:45:13.495Z,9.63
2019-01-14T09:47:41.940Z,9.50
2019-01-14T09:50:12.608Z,5.00
2019-01-14T09:52:41.102Z,9.30
2019-01-14T09:55:12.265Z,6.30
2019-01-14T09:57:40.730Z,5.87
2019-01-14T10:00:10.857Z,9.60
2019-01-14T10:02:39.517Z,7.03
2019-01-14T10:05:10.938Z,8.53
2019-01-14T10:07:39.455Z,6.60
2019-01-14T10:10:10.917Z,6.50
2019-01-14T10:12:39.371Z,5.50
2019-01-14T10:15:10.743Z,6.53
2019-01-14T10:17:39.650Z,5.33
2019-01-14T10:20:09.516Z,5.53
2019-01-14T10:22:37.983Z,8.37
2019-01-14T10:25:08.582Z,10.33
2019-01-14T10:27:37.103Z,9.57
2019-01-14T10:30:11.224Z,2.87
2019-01-14T10:32:39.764Z,10.13
2019-01-14T10:35:08.901Z,4.57
2019-01-14T10:37:37.353Z,9.97
2019-01-14T10:40:09.438Z,7.07
2019-01-14T10:42:37.901Z,11.47
2019-01-14T10:45:09.394Z,5.90
2019-01-14T10:47:37.843Z,7.73
2019-01-14T10:50:11.397Z,5.83
2019-01-14T10:52:39.839Z,5.63
2019-01-14T10:55:12.434Z,10.47
2019-01-14T10:57:39.300Z,9.30
2019-01-14T11:00:10.806Z,7.30
2019-01-14T11:02:40.736Z,10.30
2019-01-14T11:05:10.869Z,8.47
2019-01-14T11:07:39.478Z,5.87
2019-01-14T11:10:10.150Z,7.33
2019-01-14T11:12:38.711Z,7.23
2019-01-14T11:15:10.202Z,7.27
2019-01-14T11:17:38.694Z,5.30
2019-01-14T11:20:10.212Z,7.50
2019-01-14T11:22:38.657Z,10.00
2019-01-14T11:25:07.729Z,6.33
2019-01-14T11:27:36.189Z,5.70
2019-01-14T11:30:07.695Z,4.93
2019-01-14T11:32:36.152Z,5.03
2019-01-14T11:35:06.655Z,6.07
2019-01-14T11:37:35.113Z,6.53
2019-01-14T11:40:07.487Z,5.73
2019-01-14T11:42:35.989Z,4.60
2019-01-14T11:45:07.035Z,3.87
2019-01-14T11:47:35.490Z,7.57
2019-01-14T11:50:07.013Z,4.30
2019-01-14T11:52:35.456Z,2.97
2019-01-14T11:55:06.353Z,4.73
2019-01-14T11:57:34.791Z,4.63
2019-01-14T12:00:04.864Z,4.10
2019-01-14T12:02:39.535Z,5.10
2019-01-14T12:05:04.473Z,6.80
2019-01-14T12:07:32.960Z,5.33
2019-01-14T12:10:01.412Z,8.23
2019-01-14T12:12:29.843Z,4.10
2019-01-14T12:14:58.307Z,5.03
2019-01-14T12:17:26.746Z,4.17
2019-01-14T12:19:55.193Z,5.40
2019-01-14T12:22:23.645Z,5.60
2019-01-14T12:24:52.085Z,2.40
2019-01-14T12:27:20.625Z,4.43
2019-01-14T12:29:49.067Z,7.97
2019-01-14T12:32:17.550Z,3.57
2019-01-14T12:34:46.016Z,4.23
2019-01-14T12:37:14.454Z,5.20
2019-01-14T12:39:42.919Z,6.33
2019-01-14T12:42:11.355Z,3.87
2019-01-14T12:44:39.826Z,8.50
2019-01-14T12:47:08.271Z,7.97
2019-01-14T12:49:36.789Z,3.83
2019-01-14T12:52:05.216Z,4.07
2019-01-14T12:54:33.669Z,3.40
2019-01-14T12:57:02.173Z,4.43
2019-01-14T12:59:30.655Z,5.63
2019-01-14T13:01:59.111Z,3.77
2019-01-14T13:04:27.737Z,4.57
2019-01-14T13:06:56.172Z,0.73
2019-01-14T13:09:26.882Z,2.57
2019-01-14T13:11:54.810Z,2.27
2019-01-14T13:14:23.374Z,3.60
2019-01-14T13:16:51.882Z,3.43
2019-01-14T13:19:20.344Z,4.20
2019-01-14T13:21:48.862Z,3.70
2019-01-14T13:24:17.335Z,4.50
2019-01-14T13:26:45.787Z,5.50
2019-01-14T13:29:15.363Z,4.13
2019-01-14T13:31:43.859Z,2.10
2019-01-14T13:34:12.314Z,2.10
2019-01-14T13:36:40.768Z,3.40
2019-01-14T13:39:10.578Z,1.00
2019-01-14T13:41:39.035Z,2.40
2019-01-14T13:44:07.500Z,2.47
2019-01-14T13:46:35.947Z,1.10
2019-01-14T13:49:04.386Z,4.67
2019-01-14T13:51:32.826Z,3.50
2019-01-14T13:54:01.257Z,2.63
2019-01-14T13:56:29.708Z,4.97
2019-01-14T13:58:58.146Z,1.77
2019-01-14T14:01:26.585Z,3.33
2019-01-14T14:03:55.023Z,3.37
2019-01-14T14:06:23.503Z,5.50
2019-01-14T14:08:51.934Z,2.07
2019-01-14T14:11:20.393Z,3.97
2019-01-14T14:13:48.832Z,8.93
2019-01-14T14:16:17.281Z,2.70
2019-01-14T14:18:45.709Z,5.70
2019-01-14T14:21:15.064Z,7.03
2019-01-14T14:23:43.559Z,5.60
2019-01-14T14:26:12.011Z,5.43
2019-01-14T14:28:40.455Z,5.60
2019-01-14T14:31:08.926Z,5.53
2019-01-14T14:33:37.358Z,6.57
2019-01-14T14:36:05.814Z,3.30
2019-01-14T14:38:34.260Z,3.80
2019-01-14T14:41:02.710Z,2.67
2019-01-14T14:43:31.177Z,4.97
2019-01-14T14:45:59.706Z,3.83
2019-01-14T14:48:28.151Z,3.90
2019-01-14T14:50:56.665Z,5.77
2019-01-14T14:53:25.103Z,5.07
2019-01-14T14:55:53.542Z,11.93
2019-01-14T14:58:21.969Z,3.97
2019-01-14T15:00:50.445Z,4.13
2019-01-14T15:03:18.929Z,3.83
2019-01-14T15:05:47.390Z,4.00
2019-01-14T15:08:15.825Z,6.10
2019-01-14T15:10:44.274Z,5.87
2019-01-14T15:13:12.710Z,8.63
2019-01-14T15:15:41.162Z,3.47
2019-01-14T15:18:09.601Z,4.93
2019-01-14T15:20:38.053Z,3.13
2019-01-14T15:23:06.502Z,4.60
2019-01-14T15:25:34.955Z,7.13
2019-01-14T15:28:03.426Z,6.40
2019-01-14T15:30:32.015Z,6.23
2019-01-14T15:33:00.455Z,6.60
2019-01-14T15:35:28.899Z,7.03
2019-01-14T15:37:57.337Z,8.13
2019-01-14T15:40:25.844Z,3.23
2019-01-14T15:42:54.372Z,6.00
2019-01-14T15:45:24.059Z,4.90
2019-01-14T15:47:52.575Z,5.53
2019-01-14T15:50:21.082Z,4.87
2019-01-14T15:52:49.539Z,6.60
2019-01-14T15:55:23.357Z,4.17
2019-01-14T15:57:51.804Z,3.87
2019-01-14T16:00:20.378Z,5.07
2019-01-14T16:02:49.096Z,4.60
2019-01-14T16:05:18.708Z,4.27
2019-01-14T16:07:47.319Z,3.97
2019-01-14T16:10:20.224Z,4.93
2019-01-14T16:12:48.682Z,6.27
2019-01-14T16:15:17.101Z,8.70
2019-01-14T16:17:45.934Z,3.67
2019-01-14T16:20:16.420Z,4.40
2019-01-14T16:22:44.895Z,6.40
2019-01-14T16:25:13.321Z,5.03
2019-01-14T16:27:41.777Z,6.77
2019-01-14T16:30:18.363Z,5.67
2019-01-14T16:32:46.853Z,5.50
2019-01-14T16:35:15.327Z,3.63
2019-01-14T16:37:43.780Z,4.10
2019-01-14T16:40:17.947Z,5.37
2019-01-14T16:42:42.537Z,4.30
2019-01-14T16:45:19.372Z,5.43
2019-01-14T16:47:48.704Z,6.10
2019-01-14T16:50:17.277Z,4.73
2019-01-14T16:52:45.750Z,6.67
2019-01-14T16:55:15.823Z,4.97
2019-01-14T16:57:44.258Z,4.50
2019-01-14T17:00:15.505Z,3.40
2019-01-14T17:02:44.042Z,6.90
2019-01-14T17:05:13.631Z,4.40
2019-01-14T17:07:42.102Z,4.57
2019-01-14T17:10:15.808Z,6.63
2019-01-14T17:12:44.275Z,7.33
2019-01-14T17:15:13.143Z,5.00
2019-01-14T17:17:41.690Z,6.33
2019-01-14T17:20:13.202Z,3.47
2019-01-14T17:22:41.668Z,3.33
2019-01-14T17:25:10.170Z,5.13
2019-01-14T17:27:38.628Z,6.07
2019-01-14T17:30:12.886Z,6.13
2019-01-14T17:32:41.345Z,7.30
2019-01-14T17:35:09.867Z,6.50
2019-01-14T17:37:38.438Z,6.37
2019-01-14T17:40:09.973Z,7.50
2019-01-14T17:42:38.500Z,3.57
2019-01-14T17:45:09.251Z,3.80
2019-01-14T17:47:37.734Z,6.00
2019-01-14T17:50:14.571Z,6.33
2019-01-14T17:52:43.005Z,5.53
2019-01-14T17:55:11.435Z,3.57
2019-01-14T17:57:39.881Z,6.57
2019-01-14T18:00:14.639Z,5.03
2019-01-14T18:02:43.105Z,7.10
2019-01-14T18:05:11.547Z,7.27
2019-01-14T18:07:39.995Z,6.03
2019-01-14T18:10:11.967Z,3.97
2019-01-14T18:12:40.441Z,8.50
2019-01-14T18:15:09.081Z,6.43
2019-01-14T18:17:37.607Z,4.87
2019-01-14T18:20:11.672Z,8.00
2019-01-14T18:22:40.189Z,7.33
2019-01-14T18:25:08.856Z,6.77
2019-01-14T18:27:37.288Z,4.70
2019-01-14T18:30:08.811Z,5.17
2019-01-14T18:32:37.255Z,8.53
2019-01-14T18:35:07.102Z,7.53
2019-01-14T18:37:35.612Z,10.30
2019-01-14T18:40:09.851Z,10.07
2019-01-14T18:42:38.289Z,9.40
2019-01-14T18:45:09.902Z,6.93
2019-01-14T18:47:38.331Z,6.23
2019-01-14T18:50:12.629Z,7.37
2019-01-14T18:52:41.131Z,8.87
2019-01-14T18:55:09.655Z,12.60
2019-01-14T18:57:38.086Z,6.93
2019-01-14T19:00:18.915Z,9.00
2019-01-14T19:02:47.418Z,5.63
2019-01-14T19:05:15.876Z,7.13
2019-01-14T19:07:44.302Z,8.67
2019-01-14T19:10:13.704Z,6.57
2019-01-14T19:12:42.174Z,10.77
2019-01-14T19:15:13.901Z,6.97
2019-01-14T19:17:42.350Z,13.73
2019-01-14T19:20:16.528Z,8.03
2019-01-14T19:22:44.972Z,11.57
2019-01-14T19:25:14.189Z,11.67
2019-01-14T19:27:42.637Z,11.53
2019-01-14T19:30:14.035Z,8.93
2019-01-14T19:32:42.510Z,10.90
2019-01-14T19:35:11.124Z,9.63
2019-01-14T19:37:39.775Z,8.30
2019-01-14T19:40:11.471Z,9.03
2019-01-14T19:42:39.932Z,7.07
2019-01-14T19:45:10.735Z,8.43
2019-01-14T19:47:39.249Z,7.43
2019-01-14T19:50:16.504Z,10.03
2019-01-14T19:52:44.988Z,12.77
2019-01-14T19:55:13.654Z,13.90
2019-01-14T19:57:42.106Z,11.60
2019-01-14T20:00:13.663Z,9.03
2019-01-14T20:02:42.109Z,7.63
2019-01-14T20:05:10.622Z,11.43
2019-01-14T20:07:39.081Z,9.87
2019-01-14T20:10:10.863Z,11.33
2019-01-14T20:12:39.308Z,12.97
2019-01-14T20:15:13.685Z,10.40
2019-01-14T20:17:42.141Z,8.03
2019-01-14T20:20:11.724Z,10.30
2019-01-14T20:22:40.151Z,9.30
2019-01-14T20:25:10.755Z,8.13
2019-01-14T20:27:39.204Z,10.37
2019-01-14T20:30:10.826Z,12.00
2019-01-14T20:32:39.319Z,10.73
2019-01-14T20:35:07.769Z,9.10
2019-01-14T20:37:36.341Z,8.80
2019-01-14T20:40:08.399Z,12.93
2019-01-14T20:42:36.990Z,10.37
2019-01-14T20:45:08.182Z,7.03
2019-01-14T20:47:36.617Z,11.80
2019-01-14T20:50:10.317Z,12.67
2019-01-14T20:52:39.019Z,11.47
2019-01-14T20:55:08.535Z,12.03
2019-01-14T20:57:37.102Z,12.87
2019-01-14T21:00:08.907Z,9.83
2019-01-14T21:02:37.333Z,8.40
2019-01-14T21:05:07.636Z,10.50
2019-01-14T21:07:36.073Z,13.43
2019-01-14T21:10:07.054Z,13.47
2019-01-14T21:12:35.493Z,12.90
2019-01-14T21:15:04.816Z,11.60
2019-01-14T21:17:33.269Z,12.33
2019-01-14T21:20:01.781Z,15.00
2019-01-14T21:22:31.782Z,13.40
2019-01-14T21:25:00.255Z,14.33
2019-01-14T21:27:28.770Z,10.80
2019-01-14T21:29:57.219Z,11.23
2019-01-14T21:32:25.734Z,8.63
2019-01-14T21:34:54.231Z,10.37
2019-01-14T21:37:22.702Z,9.10
2019-01-14T21:39:51.134Z,12.60
2019-01-14T21:42:19.601Z,12.40
2019-01-14T21:44:48.037Z,12.47
2019-01-14T21:47:16.515Z,16.77
2019-01-14T21:49:44.938Z,16.33
2019-01-14T21:52:13.415Z,11.23
2019-01-14T21:54:41.863Z,8.83
2019-01-14T21:57:10.311Z,11.13
2019-01-14T21:59:38.839Z,14.60
2019-01-14T22:02:07.297Z,11.70
2019-01-14T22:04:35.730Z,8.80
2019-01-14T22:07:06.542Z,14.60
2019-01-14T22:09:34.975Z,12.63
2019-01-14T22:12:03.440Z,7.27
2019-01-14T22:14:31.887Z,15.33
2019-01-14T22:17:00.347Z,13.90
2019-01-14T22:19:28.773Z,11.70
2019-01-14T22:21:57.225Z,11.07
2019-01-14T22:24:25.667Z,11.70
2019-01-14T22:26:54.114Z,15.20
2019-01-14T22:29:22.567Z,14.67
2019-01-14T22:31:51.089Z,8.73
2019-01-14T22:34:19.528Z,9.47
2019-01-14T22:36:47.984Z,12.27
2019-01-14T22:39:16.433Z,14.33
2019-01-14T22:41:45.920Z,13.83
2019-01-14T22:44:14.518Z,9.50
2019-01-14T22:46:42.993Z,7.87
2019-01-14T22:49:11.479Z,9.40
2019-01-14T22:51:39.940Z,8.13
2019-01-14T22:54:08.391Z,11.17
2019-01-14T22:56:36.827Z,9.73
2019-01-14T22:59:05.290Z,13.93
2019-01-14T23:01:34.382Z,12.37
2019-01-14T23:04:02.887Z,9.43
2019-01-14T23:06:31.330Z,11.83
2019-01-14T23:08:59.785Z,11.20
2019-01-14T23:11:28.216Z,8.53
2019-01-14T23:13:56.678Z,6.97
2019-01-14T23:16:25.109Z,15.00
2019-01-14T23:18:53.576Z,15.20
2019-01-14T23:21:22.023Z,8.27
2019-01-14T23:23:50.466Z,14.23
2019-01-14T23:26:18.898Z,11.40
2019-01-14T23:28:47.363Z,8.17
2019-01-14T23:31:15.827Z,8.07
2019-01-14T23:33:44.286Z,10.60
2019-01-14T23:36:12.728Z,11.67
2019-01-14T23:38:41.212Z,11.77
2019-01-14T23:41:09.647Z,9.07
2019-01-14T23:43:38.094Z,10.13
2019-01-14T23:46:06.529Z,7.97
2019-01-14T23:48:34.995Z,9.80
2019-01-14T23:51:03.703Z,12.90
2019-01-14T23:53:32.229Z,10.33
2019-01-14T23:56:00.676Z,11.83
2019-01-14T23:58:29.127Z,11.63
